createdAt,value
2019-02-27T00:00:45.147Z,59.58
2019-02-27T00:03:13.947Z,59.98
2019-02-27T00:05:42.548Z,60.40
2019-02-27T00:08:11.125Z,58.67
2019-02-27T00:10:39.889Z,58.80
2019-02-27T00:13:08.613Z,57.59
2019-02-27T00:15:38.047Z,57.84
2019-02-27T00:18:07.265Z,57.60
2019-02-27T00:20:37.056Z,58.30
2019-02-27T00:23:06.317Z,58.25
2019-02-27T00:25:36.083Z,58.23
2019-02-27T00:28:05.348Z,59.05
2019-02-27T00:30:37.962Z,59.17
2019-02-27T00:33:04.536Z,60.23
2019-02-27T00:35:38.855Z,61.02
2019-02-27T00:38:03.454Z,61.56
2019-02-27T00:40:31.986Z,61.58
2019-02-27T00:43:02.853Z,61.44
2019-02-27T00:45:31.613Z,60.12
2019-02-27T00:48:00.096Z,59.15
2019-02-27T00:50:28.631Z,60.13
2019-02-27T00:53:00.877Z,62.65
2019-02-27T00:55:30.871Z,59.79
2019-02-27T00:57:59.446Z,59.35
2019-02-27T01:00:28.033Z,59.53
2019-02-27T01:02:56.735Z,60.66
2019-02-27T01:05:25.378Z,61.24
2019-02-27T01:07:54.792Z,62.45
2019-02-27T01:10:23.434Z,63.14
2019-02-27T01:12:52.650Z,62.74
2019-02-27T01:15:21.257Z,61.78
2019-02-27T01:17:49.893Z,61.25
2019-02-27T01:20:18.484Z,60.37
2019-02-27T01:22:47.062Z,60.24
2019-02-27T01:25:15.948Z,63.74
2019-02-27T01:27:44.559Z,64.17
2019-02-27T01:30:15.571Z,60.58
2019-02-27T01:32:44.268Z,60.53
2019-02-27T01:35:17.502Z,60.91
2019-02-27T01:37:44.333Z,61.33
2019-02-27T01:40:17.909Z,62.48
2019-02-27T01:42:46.643Z,63.28
2019-02-27T01:45:20.650Z,62.89
2019-02-27T01:47:46.513Z,62.44
2019-02-27T01:50:29.731Z,62.18
2019-02-27T01:52:58.252Z,61.95
2019-02-27T01:55:28.313Z,61.39
2019-02-27T01:57:57.055Z,62.05
2019-02-27T02:00:25.855Z,64.29
2019-02-27T02:02:55.383Z,65.11
2019-02-27T02:05:27.160Z,61.29
2019-02-27T02:07:55.666Z,60.17
2019-02-27T02:10:27.991Z,60.55
2019-02-27T02:13:18.659Z,61.42
2019-02-27T02:16:02.175Z,63.24
2019-02-27T02:18:51.960Z,63.58
2019-02-27T02:21:23.570Z,62.94
2019-02-27T02:24:20.906Z,62.24
2019-02-27T02:27:08.278Z,62.40
2019-02-27T02:29:54.416Z,62.25
2019-02-27T02:32:25.927Z,61.75
2019-02-27T02:35:14.795Z,62.61
2019-02-27T02:37:48.469Z,67.07
2019-02-27T02:40:32.107Z,63.05
2019-02-27T02:43:41.424Z,60.58
2019-02-27T02:46:13.322Z,60.98
2019-02-27T02:49:08.029Z,62.24
2019-02-27T02:51:50.414Z,63.14
2019-02-27T02:54:27.934Z,64.39
2019-02-27T02:57:08.298Z,63.64
2019-02-27T03:00:04.214Z,62.89
2019-02-27T03:02:42.215Z,62.75
2019-02-27T03:05:24.307Z,62.42
2019-02-27T03:08:01.801Z,62.58
2019-02-27T03:10:42.569Z,63.57
2019-02-27T03:13:24.340Z,66.95
2019-02-27T03:16:17.012Z,62.30
2019-02-27T03:19:05.063Z,61.25
2019-02-27T03:21:42.557Z,62.12
2019-02-27T03:24:45.977Z,63.86
2019-02-27T03:27:17.488Z,65.14
2019-02-27T03:29:54.636Z,64.65
2019-02-27T03:32:26.131Z,63.86
2019-02-27T03:35:27.983Z,63.67
2019-02-27T03:37:57.919Z,63.12
2019-02-27T03:40:48.965Z,62.29
2019-02-27T03:43:38.350Z,61.68
2019-02-27T03:46:24.683Z,62.02
2019-02-27T03:49:04.642Z,66.10
2019-02-27T03:51:48.432Z,61.98
2019-02-27T03:54:21.315Z,61.97
2019-02-27T03:56:56.252Z,62.39
2019-02-27T03:59:27.926Z,63.80
2019-02-27T04:02:06.308Z,65.27
2019-02-27T04:04:50.523Z,65.05
2019-02-27T04:07:25.125Z,64.02
2019-02-27T04:09:55.399Z,63.84
2019-02-27T04:12:23.883Z,63.58
2019-02-27T04:14:52.511Z,63.63
2019-02-27T04:17:27.832Z,63.39
2019-02-27T04:19:57.767Z,62.76
2019-02-27T04:22:26.795Z,66.50
2019-02-27T04:24:56.779Z,67.35
2019-02-27T04:27:25.763Z,62.93
2019-02-27T04:29:54.445Z,62.58
2019-02-27T04:32:23.080Z,63.58
2019-02-27T04:34:51.598Z,64.99
2019-02-27T04:37:20.411Z,65.42
2019-02-27T04:39:49.636Z,65.51
2019-02-27T04:42:18.191Z,64.75
2019-02-27T04:44:46.706Z,64.20
2019-02-27T04:47:15.500Z,63.86
2019-02-27T04:49:44.072Z,63.68
2019-02-27T04:52:12.554Z,63.19
2019-02-27T04:54:42.130Z,63.28
2019-02-27T04:57:10.967Z,63.68
2019-02-27T04:59:39.554Z,68.34
2019-02-27T05:02:08.228Z,63.20
2019-02-27T05:04:36.842Z,62.18
2019-02-27T05:07:05.411Z,63.23
2019-02-27T05:09:34.670Z,64.69
2019-02-27T05:12:03.173Z,65.19
2019-02-27T05:14:31.746Z,65.47
2019-02-27T05:17:00.597Z,65.03
2019-02-27T05:19:29.217Z,64.40
2019-02-27T05:21:57.686Z,64.21
2019-02-27T05:24:29.211Z,63.98
2019-02-27T05:26:58.121Z,63.41
2019-02-27T05:29:28.224Z,62.73
2019-02-27T05:31:56.752Z,62.51
2019-02-27T05:34:25.200Z,73.01
2019-02-27T05:36:53.810Z,66.20
2019-02-27T05:39:22.256Z,63.06
2019-02-27T05:41:50.889Z,63.21
2019-02-27T05:44:22.118Z,64.85
2019-02-27T05:46:49.661Z,65.22
2019-02-27T05:49:18.212Z,65.14
2019-02-27T05:51:46.654Z,64.65
2019-02-27T05:54:15.388Z,64.40
2019-02-27T05:56:43.882Z,64.67
2019-02-27T05:59:12.475Z,64.25
2019-02-27T06:01:41.011Z,63.54
2019-02-27T06:04:09.666Z,63.03
2019-02-27T06:06:38.257Z,63.74
2019-02-27T06:09:10.079Z,68.07
2019-02-27T06:11:37.492Z,65.90
2019-02-27T06:14:06.066Z,63.62
2019-02-27T06:16:37.187Z,62.67
2019-02-27T06:19:06.122Z,63.46
2019-02-27T06:21:38.871Z,65.33
2019-02-27T06:24:11.617Z,65.80
2019-02-27T06:26:37.838Z,65.36
2019-02-27T06:29:06.394Z,64.65
2019-02-27T06:31:38.795Z,65.17
2019-02-27T06:34:05.286Z,64.64
2019-02-27T06:36:33.945Z,64.08
2019-02-27T06:39:02.574Z,63.81
2019-02-27T06:41:31.601Z,64.18
2019-02-27T06:44:01.606Z,64.94
2019-02-27T06:46:30.440Z,66.62
2019-02-27T06:48:58.918Z,63.39
2019-02-27T06:51:27.441Z,62.57
2019-02-27T06:53:55.996Z,63.20
2019-02-27T06:56:24.588Z,64.66
2019-02-27T06:58:53.110Z,65.44
2019-02-27T07:01:21.766Z,64.84
2019-02-27T07:03:50.365Z,64.47
2019-02-27T07:06:21.293Z,63.97
2019-02-27T07:08:49.236Z,63.77
2019-02-27T07:11:17.792Z,63.08
2019-02-27T07:13:46.495Z,62.58
2019-02-27T07:16:15.036Z,62.33
2019-02-27T07:18:43.632Z,62.48
2019-02-27T07:21:12.371Z,69.62
2019-02-27T07:23:41.046Z,64.22
2019-02-27T07:26:09.683Z,62.62
2019-02-27T07:28:38.193Z,63.53
2019-02-27T07:31:06.844Z,64.55
2019-02-27T07:33:37.982Z,65.66
2019-02-27T07:36:05.763Z,65.53
2019-02-27T07:38:34.333Z,65.15
2019-02-27T07:41:03.105Z,65.08
2019-02-27T07:43:32.329Z,64.54
2019-02-27T07:46:00.941Z,63.35
2019-02-27T07:48:29.484Z,63.60
2019-02-27T07:50:58.020Z,63.06
2019-02-27T07:53:26.663Z,62.63
2019-02-27T07:55:55.350Z,66.10
2019-02-27T07:58:23.756Z,60.12
2019-02-27T08:00:52.370Z,57.08
2019-02-27T08:03:20.951Z,57.08
2019-02-27T08:05:49.441Z,57.18
2019-02-27T08:08:18.061Z,56.29
2019-02-27T08:10:46.672Z,55.18
2019-02-27T08:13:15.464Z,55.26
2019-02-27T08:15:44.143Z,54.84
2019-02-27T08:18:12.871Z,54.21
2019-02-27T08:20:41.626Z,55.35
2019-02-27T08:23:10.275Z,53.28
2019-02-27T08:25:38.776Z,53.07
2019-02-27T08:28:07.410Z,52.63
2019-02-27T08:30:35.996Z,54.04
2019-02-27T08:33:08.132Z,50.85
2019-02-27T08:35:35.509Z,49.17
2019-02-27T08:38:04.944Z,50.20
2019-02-27T08:40:33.586Z,50.42
2019-02-27T08:43:03.106Z,49.53
2019-02-27T08:45:31.696Z,49.49
2019-02-27T08:48:00.251Z,47.85
2019-02-27T08:50:31.498Z,47.63
2019-02-27T08:52:59.069Z,46.24
2019-02-27T08:55:27.692Z,46.72
2019-02-27T08:57:57.102Z,45.41
2019-02-27T09:00:28.785Z,44.80
2019-02-27T09:03:02.510Z,43.79
2019-02-27T09:05:27.718Z,43.36
2019-02-27T09:07:56.311Z,40.81
2019-02-27T09:10:30.593Z,41.99
2019-02-27T09:13:05.518Z,42.32
2019-02-27T09:15:28.801Z,42.12
2019-02-27T09:17:59.155Z,40.95
2019-02-27T09:20:27.675Z,41.36
2019-02-27T09:22:56.132Z,40.32
2019-02-27T09:25:25.049Z,38.96
2019-02-27T09:27:53.727Z,39.26
2019-02-27T09:30:29.331Z,38.26
2019-02-27T09:32:56.396Z,37.33
2019-02-27T09:35:24.994Z,36.96
2019-02-27T09:38:12.943Z,37.17
2019-02-27T09:40:41.449Z,37.49
2019-02-27T09:43:11.622Z,37.35
2019-02-27T09:45:40.501Z,36.45
2019-02-27T09:48:09.002Z,36.16
2019-02-27T09:50:48.936Z,36.60
2019-02-27T09:53:17.721Z,37.30
2019-02-27T09:55:46.320Z,36.73
2019-02-27T09:58:15.021Z,35.94
2019-02-27T10:00:48.311Z,35.53
2019-02-27T10:03:20.034Z,35.08
2019-02-27T10:05:47.850Z,34.71
2019-02-27T10:08:16.827Z,34.35
2019-02-27T10:10:46.080Z,35.08
2019-02-27T10:13:14.796Z,34.62
2019-02-27T10:15:43.422Z,34.61
2019-02-27T10:18:11.996Z,35.41
2019-02-27T10:20:40.587Z,34.10
2019-02-27T10:23:09.171Z,33.99
2019-02-27T10:25:37.971Z,32.30
2019-02-27T10:28:06.790Z,31.42
2019-02-27T10:30:35.393Z,32.65
2019-02-27T10:33:04.218Z,32.56
2019-02-27T10:35:34.674Z,32.36
2019-02-27T10:38:03.229Z,33.35
2019-02-27T10:40:31.859Z,33.11
2019-02-27T10:43:00.530Z,32.78
2019-02-27T10:45:29.115Z,32.32
2019-02-27T10:47:57.594Z,31.88
2019-02-27T10:50:26.199Z,31.89
2019-02-27T10:52:54.782Z,32.64
2019-02-27T10:55:24.489Z,32.82
2019-02-27T10:57:53.274Z,32.09
2019-02-27T11:00:31.179Z,32.51
2019-02-27T11:03:03.546Z,32.62
2019-02-27T11:05:37.636Z,32.71
2019-02-27T11:08:06.349Z,32.28
2019-02-27T11:10:35.032Z,32.83
2019-02-27T11:13:06.698Z,32.51
2019-02-27T11:15:34.921Z,32.40
2019-02-27T11:18:05.627Z,32.36
2019-02-27T11:20:34.718Z,32.54
2019-02-27T11:23:06.400Z,31.09
2019-02-27T11:25:33.674Z,30.45
2019-02-27T11:28:02.288Z,31.19
2019-02-27T11:30:38.667Z,32.22
2019-02-27T11:33:07.323Z,31.54
2019-02-27T11:35:35.943Z,32.07
2019-02-27T11:38:04.931Z,31.03
2019-02-27T11:40:33.564Z,30.89
2019-02-27T11:43:06.358Z,30.84
2019-02-27T11:45:33.186Z,30.48
2019-02-27T11:48:01.725Z,31.26
2019-02-27T11:50:30.304Z,31.07
2019-02-27T11:53:01.924Z,30.28
2019-02-27T11:55:29.173Z,30.06
2019-02-27T11:57:58.083Z,30.24
2019-02-27T12:00:31.343Z,29.65
2019-02-27T12:03:00.099Z,30.90
2019-02-27T12:05:33.730Z,30.42
2019-02-27T12:07:59.363Z,31.11
2019-02-27T12:10:32.420Z,29.34
2019-02-27T12:13:01.655Z,30.35
2019-02-27T12:15:30.398Z,29.98
2019-02-27T12:18:00.439Z,29.73
2019-02-27T12:20:29.353Z,29.97
2019-02-27T12:22:58.058Z,30.61
2019-02-27T12:25:29.232Z,29.99
2019-02-27T12:27:57.569Z,29.90
2019-02-27T12:30:28.391Z,29.94
2019-02-27T12:32:57.323Z,29.89
2019-02-27T12:35:36.219Z,30.56
2019-02-27T12:38:08.242Z,29.12
2019-02-27T12:40:36.670Z,29.29
2019-02-27T12:43:05.711Z,30.04
2019-02-27T12:45:34.472Z,29.19
2019-02-27T12:48:03.053Z,29.10
2019-02-27T12:50:31.742Z,28.96
2019-02-27T12:53:00.449Z,28.98
2019-02-27T12:55:29.020Z,28.61
2019-02-27T12:57:57.569Z,28.83
2019-02-27T13:00:30.527Z,28.83
2019-02-27T13:02:59.685Z,28.22
2019-02-27T13:05:28.807Z,28.66
2019-02-27T13:07:57.389Z,28.41
2019-02-27T13:10:34.196Z,28.14
2019-02-27T13:12:59.782Z,28.59
2019-02-27T13:15:30.121Z,27.46
2019-02-27T13:17:59.014Z,26.89
2019-02-27T13:20:28.731Z,27.93
2019-02-27T13:22:57.345Z,27.71
2019-02-27T13:25:25.972Z,28.18
2019-02-27T13:27:54.469Z,27.83
2019-02-27T13:30:24.355Z,26.48
2019-02-27T13:32:53.229Z,26.99
2019-02-27T13:35:23.110Z,27.96
2019-02-27T13:37:52.568Z,27.39
2019-02-27T13:40:29.240Z,27.71
2019-02-27T13:42:58.034Z,27.53
2019-02-27T13:45:31.069Z,28.63
2019-02-27T13:48:04.948Z,28.63
2019-02-27T13:50:30.239Z,27.74
2019-02-27T13:52:58.816Z,27.46
2019-02-27T13:55:27.373Z,28.74
2019-02-27T13:57:58.783Z,27.88
2019-02-27T14:00:30.422Z,27.91
2019-02-27T14:02:59.085Z,27.31
2019-02-27T14:05:29.439Z,27.94
2019-02-27T14:07:59.302Z,27.91
2019-02-27T14:10:34.564Z,27.57
2019-02-27T14:13:03.292Z,27.05
2019-02-27T14:15:32.093Z,27.94
2019-02-27T14:18:00.844Z,27.71
2019-02-27T14:20:29.589Z,27.91
2019-02-27T14:22:58.369Z,27.45
2019-02-27T14:25:32.598Z,26.42
2019-02-27T14:27:59.155Z,25.53
2019-02-27T14:30:36.645Z,25.99
2019-02-27T14:33:05.305Z,26.49
2019-02-27T14:35:36.331Z,25.96
2019-02-27T14:38:04.335Z,26.13
2019-02-27T14:40:37.782Z,25.93
2019-02-27T14:43:03.248Z,25.21
2019-02-27T14:45:31.851Z,25.05
2019-02-27T14:48:00.500Z,24.55
2019-02-27T14:50:33.587Z,25.70
2019-02-27T14:52:59.517Z,25.28
2019-02-27T14:55:28.237Z,25.42
2019-02-27T14:57:56.895Z,25.62
2019-02-27T15:00:30.917Z,25.28
2019-02-27T15:02:59.548Z,25.25
2019-02-27T15:05:28.341Z,25.17
2019-02-27T15:07:56.993Z,24.60
2019-02-27T15:10:26.078Z,24.73
2019-02-27T15:12:55.641Z,25.29
2019-02-27T15:15:32.134Z,24.65
2019-02-27T15:18:01.463Z,25.64
2019-02-27T15:20:30.753Z,25.83
2019-02-27T15:22:59.483Z,25.37
2019-02-27T15:25:28.299Z,24.70
2019-02-27T15:27:58.821Z,25.84
2019-02-27T15:30:32.404Z,25.85
2019-02-27T15:33:04.335Z,26.36
2019-02-27T15:35:31.325Z,26.42
2019-02-27T15:38:00.161Z,26.63
2019-02-27T15:40:30.333Z,26.44
2019-02-27T15:42:59.022Z,26.17
2019-02-27T15:45:28.632Z,26.41
2019-02-27T15:47:57.460Z,26.48
2019-02-27T15:50:30.138Z,26.07
2019-02-27T15:53:00.107Z,26.83
2019-02-27T15:55:32.761Z,26.99
2019-02-27T15:57:59.427Z,26.02
2019-02-27T16:00:28.898Z,26.77
2019-02-27T16:02:57.609Z,26.95
2019-02-27T16:05:30.028Z,27.44
2019-02-27T16:07:56.685Z,27.15
2019-02-27T16:10:26.508Z,26.51
2019-02-27T16:12:59.669Z,26.81
2019-02-27T16:15:25.771Z,27.15
2019-02-27T16:17:54.538Z,27.83
2019-02-27T16:20:26.808Z,27.26
2019-02-27T16:22:55.252Z,27.46
2019-02-27T16:25:24.807Z,27.12
2019-02-27T16:27:53.384Z,26.83
2019-02-27T16:30:24.893Z,27.54
2019-02-27T16:32:53.744Z,27.91
2019-02-27T16:35:22.528Z,28.30
2019-02-27T16:37:56.582Z,28.59
2019-02-27T16:40:22.797Z,28.46
2019-02-27T16:42:51.704Z,29.21
2019-02-27T16:45:22.713Z,29.49
2019-02-27T16:47:53.974Z,29.52
2019-02-27T16:50:24.748Z,29.97
2019-02-27T16:52:57.389Z,31.03
2019-02-27T16:55:28.004Z,30.24
2019-02-27T16:57:57.589Z,31.36
2019-02-27T17:00:28.947Z,31.62
2019-02-27T17:02:57.583Z,31.90
2019-02-27T17:05:26.277Z,32.19
2019-02-27T17:08:00.207Z,32.80
2019-02-27T17:10:32.978Z,32.81
2019-02-27T17:13:01.580Z,33.68
2019-02-27T17:15:34.724Z,33.87
2019-02-27T17:18:00.523Z,34.15
2019-02-27T17:20:29.584Z,33.96
2019-02-27T17:22:58.395Z,33.75
2019-02-27T17:25:30.008Z,34.79
2019-02-27T17:27:57.419Z,34.88
2019-02-27T17:30:28.466Z,34.68
2019-02-27T17:32:57.001Z,35.61
2019-02-27T17:35:26.825Z,35.81
2019-02-27T17:37:55.439Z,35.93
2019-02-27T17:40:24.139Z,35.81
2019-02-27T17:42:53.506Z,36.66
2019-02-27T17:45:25.396Z,36.58
2019-02-27T17:47:54.092Z,36.73
2019-02-27T17:50:23.110Z,36.71
2019-02-27T17:52:51.892Z,37.06
2019-02-27T17:55:20.538Z,37.26
2019-02-27T17:57:49.486Z,37.41
2019-02-27T18:00:22.231Z,37.88
2019-02-27T18:02:50.839Z,38.08
2019-02-27T18:05:22.356Z,38.49
2019-02-27T18:07:49.808Z,38.96
2019-02-27T18:10:18.398Z,39.10
2019-02-27T18:12:47.032Z,39.23
2019-02-27T18:15:21.418Z,38.92
2019-02-27T18:17:50.063Z,38.68
2019-02-27T18:20:24.452Z,38.75
2019-02-27T18:22:50.291Z,39.04
2019-02-27T18:25:19.326Z,39.70
2019-02-27T18:27:48.163Z,40.17
2019-02-27T18:30:21.121Z,39.99
2019-02-27T18:32:50.065Z,40.30
2019-02-27T18:35:19.589Z,40.78
2019-02-27T18:37:53.338Z,41.36
2019-02-27T18:40:19.670Z,41.24
2019-02-27T18:42:48.286Z,40.68
2019-02-27T18:45:18.684Z,41.86
2019-02-27T18:47:47.326Z,43.44
2019-02-27T18:50:16.569Z,42.14
2019-02-27T18:52:45.205Z,41.52
2019-02-27T18:55:15.451Z,41.35
2019-02-27T18:57:47.226Z,41.16
2019-02-27T19:00:21.206Z,41.10
2019-02-27T19:02:52.015Z,41.43
2019-02-27T19:05:22.083Z,42.26
2019-02-27T19:07:53.621Z,41.98
2019-02-27T19:10:21.371Z,42.80
2019-02-27T19:12:49.948Z,42.15
2019-02-27T19:15:23.678Z,42.14
2019-02-27T19:17:52.372Z,42.40
2019-02-27T19:20:29.803Z,42.54
2019-02-27T19:23:00.347Z,42.48
2019-02-27T19:25:34.328Z,42.85
2019-02-27T19:27:59.045Z,42.80
2019-02-27T19:30:28.061Z,43.38
2019-02-27T19:33:01.582Z,42.69
2019-02-27T19:35:27.717Z,42.60
2019-02-27T19:37:56.266Z,42.42
2019-02-27T19:40:30.076Z,42.70
2019-02-27T19:42:57.324Z,43.06
2019-02-27T19:45:26.006Z,42.97
2019-02-27T19:47:55.867Z,44.02
2019-02-27T19:50:24.797Z,44.02
2019-02-27T19:52:53.474Z,43.57
2019-02-27T19:55:26.266Z,44.04
2019-02-27T19:57:52.747Z,44.31
2019-02-27T20:00:33.747Z,43.80
2019-02-27T20:03:01.534Z,43.53
2019-02-27T20:05:30.303Z,43.52
2019-02-27T20:07:58.952Z,43.63
2019-02-27T20:10:30.967Z,43.40
2019-02-27T20:12:57.994Z,44.23
2019-02-27T20:15:27.561Z,44.41
2019-02-27T20:17:56.357Z,44.28
2019-02-27T20:20:25.862Z,44.54
2019-02-27T20:22:55.456Z,44.16
2019-02-27T20:25:29.205Z,44.28
2019-02-27T20:27:58.874Z,44.85
2019-02-27T20:30:27.600Z,44.99
2019-02-27T20:32:56.415Z,45.30
2019-02-27T20:35:24.947Z,45.42
2019-02-27T20:37:53.584Z,45.58
2019-02-27T20:40:22.313Z,46.85
2019-02-27T20:42:54.842Z,46.84
2019-02-27T20:45:22.319Z,48.27
2019-02-27T20:47:57.771Z,47.58
2019-02-27T20:50:35.293Z,48.29
2019-02-27T20:53:04.919Z,47.61
2019-02-27T20:55:33.503Z,47.72
2019-02-27T20:58:02.130Z,47.61
2019-02-27T21:00:36.119Z,48.20
2019-02-27T21:03:02.585Z,47.82
2019-02-27T21:05:31.776Z,47.57
2019-02-27T21:08:01.956Z,47.46
2019-02-27T21:10:33.213Z,47.87
2019-02-27T21:13:01.918Z,47.90
2019-02-27T21:15:32.589Z,47.75
2019-02-27T21:18:00.978Z,47.81
2019-02-27T21:20:33.274Z,47.84
2019-02-27T21:23:02.110Z,47.69
2019-02-27T21:25:30.579Z,47.80
2019-02-27T21:27:59.153Z,48.74
2019-02-27T21:30:27.766Z,49.05
2019-02-27T21:32:56.392Z,49.25
2019-02-27T21:35:28.922Z,48.99
2019-02-27T21:37:55.383Z,49.49
2019-02-27T21:40:23.930Z,49.23
2019-02-27T21:42:52.539Z,50.17
2019-02-27T21:45:22.357Z,49.83
2019-02-27T21:47:52.651Z,50.08
2019-02-27T21:50:23.520Z,49.99
2019-02-27T21:52:54.325Z,49.93
2019-02-27T21:55:22.764Z,49.99
2019-02-27T21:57:51.448Z,50.19
2019-02-27T22:00:28.900Z,50.16
2019-02-27T22:03:04.008Z,51.37
2019-02-27T22:05:29.068Z,51.44
2019-02-27T22:07:57.769Z,52.37
2019-02-27T22:10:26.499Z,51.49
2019-02-27T22:12:55.108Z,52.16
2019-02-27T22:15:28.753Z,52.30
2019-02-27T22:17:57.447Z,52.22
2019-02-27T22:20:27.005Z,52.03
2019-02-27T22:22:55.601Z,52.27
2019-02-27T22:25:24.250Z,52.28
2019-02-27T22:27:52.847Z,52.50
2019-02-27T22:30:22.480Z,52.55
2019-02-27T22:32:51.177Z,53.34
2019-02-27T22:35:19.771Z,52.90
2019-02-27T22:37:51.587Z,52.73
2019-02-27T22:40:23.419Z,52.78
2019-02-27T22:42:58.898Z,52.32
2019-02-27T22:45:27.580Z,53.13
2019-02-27T22:47:57.585Z,52.94
2019-02-27T22:50:26.246Z,54.00
2019-02-27T22:52:55.432Z,53.67
2019-02-27T22:55:24.126Z,53.56
2019-02-27T22:57:54.828Z,53.73
2019-02-27T23:00:56.252Z,54.28
2019-02-27T23:03:37.180Z,54.06
2019-02-27T23:06:06.246Z,54.24
2019-02-27T23:08:35.099Z,54.24
2019-02-27T23:11:03.851Z,55.05
2019-02-27T23:13:32.570Z,54.85
2019-02-27T23:16:01.186Z,54.91
2019-02-27T23:18:30.603Z,54.81
2019-02-27T23:20:59.267Z,54.66
2019-02-27T23:23:27.822Z,54.82
2019-02-27T23:25:56.530Z,54.66
2019-02-27T23:28:25.152Z,55.50
2019-02-27T23:30:55.950Z,54.74
2019-02-27T23:33:24.741Z,54.49
2019-02-27T23:35:53.332Z,54.88
2019-02-27T23:38:21.922Z,55.07
2019-02-27T23:40:50.514Z,55.14
2019-02-27T23:43:19.732Z,55.78
2019-02-27T23:45:48.728Z,55.45
2019-02-27T23:48:17.261Z,55.52
2019-02-27T23:50:45.832Z,55.99
2019-02-27T23:53:15.249Z,56.47
2019-02-27T23:55:44.598Z,56.58
2019-02-27T23:58:14.992Z,56.75
